Time;durP1;ratioP1;P1;durP2;ratioP2;P2;SDS_P1;SDS_P2;PMS_P1;PMS_P2;Temp;Humidity;BMP_temperature;BMP_pressure;BME280_temperature;BME280_humidity;BME280_pressure;Samples;Min_cycle;Max_cycle;Signal;HPM_P1;HPM_P2
2023/03/11 00:01:45;;;;;;;4.70;1.40;;;3.90;99.90;;;;;;5027617;28;20223;-70
2023/03/11 00:04:30;;;;;;;3.45;1.30;;;3.90;99.40;;;;;;5017249;28;20215;-70
2023/03/11 00:07:16;;;;;;;4.70;1.10;;;3.90;99.70;;;;;;5025106;28;20243;-71
2023/03/11 00:10:02;;;;;;;2.95;1.50;;;3.90;99.00;;;;;;5021420;28;20289;-70
2023/03/11 00:12:49;;;;;;;1.90;1.05;;;3.80;98.90;;;;;;5022199;28;20229;-70
2023/03/11 00:15:35;;;;;;;1.60;1.02;;;3.80;99.50;;;;;;5022661;28;20207;-70
2023/03/11 00:18:24;;;;;;;5.90;1.30;;;3.90;99.30;;;;;;5027530;28;20719;-70
2023/03/11 00:21:15;;;;;;;3.90;1.20;;;3.80;99.00;;;;;;5016365;28;20334;-70
2023/03/11 00:24:02;;;;;;;1.70;1.10;;;3.70;96.60;;;;;;5034381;28;20346;-71
2023/03/11 00:26:48;;;;;;;5.93;1.10;;;3.70;96.70;;;;;;5021746;28;20224;-70
2023/03/11 00:29:35;;;;;;;1.70;1.00;;;3.70;95.20;;;;;;5037633;28;20212;-70
2023/03/11 00:32:21;;;;;;;6.28;1.50;;;3.70;94.30;;;;;;5033880;28;20693;-70
2023/03/11 00:35:08;;;;;;;2.85;1.98;;;3.80;96.20;;;;;;5029847;28;20356;-71
2023/03/11 00:37:56;;;;;;;2.58;1.10;;;3.80;95.00;;;;;;5036482;28;20233;-71
2023/03/11 00:40:42;;;;;;;2.38;1.30;;;3.90;94.80;;;;;;5028167;28;20207;-71
2023/03/11 00:43:28;;;;;;;3.95;1.10;;;3.80;94.70;;;;;;5034628;28;20206;-70
2023/03/11 00:46:15;;;;;;;2.35;1.33;;;3.60;94.30;;;;;;5030677;28;20269;-71
2023/03/11 00:49:00;;;;;;;2.65;1.08;;;3.70;95.30;;;;;;5035134;28;20213;-71
2023/03/11 00:51:46;;;;;;;2.15;1.10;;;3.90;95.80;;;;;;5037085;28;20270;-71
2023/03/11 00:54:32;;;;;;;4.25;1.08;;;3.90;96.30;;;;;;5035063;28;20436;-70
2023/03/11 00:57:17;;;;;;;1.80;1.10;;;4.00;95.70;;;;;;5027269;28;20217;-71
2023/03/11 01:00:05;;;;;;;2.40;1.17;;;4.10;95.40;;;;;;5020646;28;20270;-71
2023/03/11 01:02:54;;;;;;;5.25;1.50;;;4.20;96.10;;;;;;5022830;28;20573;-71
2023/03/11 01:05:40;;;;;;;3.45;1.10;;;4.10;93.40;;;;;;5029831;28;20285;-71
2023/03/11 01:08:26;;;;;;;2.55;1.10;;;4.10;94.90;;;;;;5028850;28;20231;-71
2023/03/11 01:11:12;;;;;;;6.10;1.40;;;4.10;95.40;;;;;;5025505;28;20230;-71
2023/03/11 01:13:58;;;;;;;2.88;1.25;;;4.00;93.90;;;;;;5030498;28;20240;-71
2023/03/11 01:16:45;;;;;;;3.03;1.13;;;4.00;95.40;;;;;;5019748;28;20264;-71
2023/03/11 01:19:32;;;;;;;5.50;1.20;;;4.00;96.10;;;;;;5023960;28;20294;-71
2023/03/11 01:22:17;;;;;;;2.55;0.90;;;3.90;96.80;;;;;;5028978;28;20332;-71
2023/03/11 01:25:03;;;;;;;3.88;1.70;;;3.90;98.00;;;;;;5022859;28;20211;-70
2023/03/11 01:27:49;;;;;;;4.13;1.48;;;4.00;95.90;;;;;;5027334;28;20233;-71
2023/03/11 01:30:36;;;;;;;3.25;1.40;;;4.00;96.80;;;;;;5026086;28;20230;-71
2023/03/11 01:33:22;;;;;;;3.60;1.38;;;4.00;95.20;;;;;;5023281;28;20213;-70
2023/03/11 01:36:09;;;;;;;3.65;1.05;;;3.80;95.30;;;;;;5021574;28;20688;-71
2023/03/11 01:38:55;;;;;;;4.47;1.55;;;3.80;96.90;;;;;;5019142;28;20212;-70
2023/03/11 01:41:40;;;;;;;10.88;1.65;;;3.70;97.10;;;;;;5028924;28;20202;-70
2023/03/11 01:44:26;;;;;;;9.23;1.30;;;3.60;97.20;;;;;;5024534;28;20214;-70
2023/03/11 01:47:45;;;;;;;6.10;1.35;;;3.60;98.30;;;;;;5021812;28;20247;-70
2023/03/11 01:50:34;;;;;;;3.20;1.27;;;3.60;99.40;;;;;;5023125;28;20228;-70
2023/03/11 01:53:22;;;;;;;5.65;1.83;;;3.70;99.70;;;;;;5026969;28;20207;-70
2023/03/11 01:56:08;;;;;;;3.13;1.50;;;3.60;97.80;;;;;;5029558;28;20207;-70
2023/03/11 01:58:54;;;;;;;4.82;1.83;;;3.70;99.70;;;;;;5020713;28;20728;-71
2023/03/11 02:01:49;;;;;;;9.25;1.52;;;3.70;99.10;;;;;;5025955;28;20632;-71
2023/03/11 02:04:36;;;;;;;1.60;1.00;;;3.80;98.90;;;;;;5033245;28;20346;-71
2023/03/11 02:07:22;;;;;;;4.97;1.88;;;3.90;99.80;;;;;;5031549;28;20702;-71
2023/03/11 02:10:12;;;;;;;3.70;1.35;;;3.90;99.90;;;;;;5027581;28;20285;-71
2023/03/11 02:12:58;;;;;;;16.83;1.60;;;4.00;99.00;;;;;;5027053;28;20200;-71
2023/03/11 02:15:44;;;;;;;6.35;1.90;;;4.00;98.80;;;;;;5033383;28;20211;-71
2023/03/11 02:18:30;;;;;;;7.53;1.77;;;4.00;99.50;;;;;;5022066;28;20291;-71
2023/03/11 02:21:23;;;;;;;3.15;1.50;;;4.00;98.70;;;;;;5027614;28;20557;-70
2023/03/11 02:24:17;;;;;;;2.75;1.23;;;4.10;99.90;;;;;;5026334;28;20208;-71
2023/03/11 02:27:06;;;;;;;6.65;1.48;;;4.10;98.10;;;;;;5023572;28;20292;-71
2023/03/11 02:29:53;;;;;;;2.70;1.40;;;4.10;98.30;;;;;;5027382;28;20343;-71
2023/03/11 02:32:40;;;;;;;7.35;1.75;;;4.10;98.30;;;;;;5020018;28;20718;-71
2023/03/11 02:35:26;;;;;;;6.68;1.52;;;4.10;97.90;;;;;;5025996;28;20212;-71
2023/03/11 02:38:12;;;;;;;7.75;1.55;;;4.00;98.70;;;;;;5022253;28;20237;-70
2023/03/11 02:40:59;;;;;;;5.82;1.35;;;4.10;99.90;;;;;;5039070;28;20210;-71
2023/03/11 02:43:48;;;;;;;5.10;1.67;;;4.10;99.90;;;;;;5031475;28;20317;-70
2023/03/11 02:46:34;;;;;;;8.18;1.85;;;4.20;99.90;;;;;;5023426;28;20212;-71
2023/03/11 02:49:21;;;;;;;6.55;1.30;;;4.30;99.90;;;;;;5022578;28;20757;-71
2023/03/11 02:52:07;;;;;;;4.43;1.60;;;4.30;99.90;;;;;;5025944;28;20225;-71
2023/03/11 02:54:52;;;;;;;9.25;1.50;;;4.20;99.50;;;;;;5023414;28;20277;-71
2023/03/11 02:57:38;;;;;;;6.03;1.60;;;4.00;98.60;;;;;;5020165;28;20258;-71
2023/03/11 03:00:25;;;;;;;3.97;1.50;;;3.80;99.90;;;;;;5025343;28;20286;-71
2023/03/11 03:03:11;;;;;;;2.63;1.58;;;3.80;99.90;;;;;;5024899;28;20211;-71
2023/03/11 03:05:56;;;;;;;4.80;1.60;;;3.80;99.90;;;;;;5030114;28;20207;-71
2023/03/11 03:08:42;;;;;;;9.68;2.10;;;3.80;99.90;;;;;;5023324;28;20246;-71
2023/03/11 03:11:27;;;;;;;7.50;1.80;;;3.80;99.70;;;;;;5033879;28;20230;-71
2023/03/11 03:14:13;;;;;;;3.00;1.30;;;3.80;99.90;;;;;;5023528;28;20321;-71
2023/03/11 03:17:00;;;;;;;8.02;2.30;;;3.90;99.90;;;;;;5030222;28;20873;-71
2023/03/11 03:19:46;;;;;;;8.73;1.58;;;3.90;99.90;;;;;;5041282;28;20842;-71
2023/03/11 03:22:32;;;;;;;3.30;1.67;;;4.00;99.90;;;;;;5032538;28;20207;-70
2023/03/11 03:25:17;;;;;;;7.55;1.48;;;4.00;99.90;;;;;;5042169;28;20207;-70
2023/03/11 03:28:03;;;;;;;5.15;1.60;;;4.00;99.90;;;;;;5032708;28;20581;-71
2023/03/11 03:30:49;;;;;;;8.15;1.95;;;4.00;99.90;;;;;;5036713;28;20238;-71
2023/03/11 03:33:36;;;;;;;5.85;1.40;;;4.00;99.90;;;;;;5032944;28;20683;-71
2023/03/11 03:36:22;;;;;;;6.95;2.53;;;4.00;99.90;;;;;;5027748;28;20241;-70
2023/03/11 03:39:08;;;;;;;8.05;1.95;;;3.80;99.90;;;;;;5030192;28;20211;-70
2023/03/11 03:41:53;;;;;;;2.75;1.50;;;3.70;99.90;;;;;;5033201;28;20585;-71
2023/03/11 03:44:39;;;;;;;3.97;1.60;;;3.60;99.90;;;;;;5035089;28;20250;-71
2023/03/11 03:47:25;;;;;;;3.97;1.80;;;3.50;99.90;;;;;;5021584;28;20247;-71
2023/03/11 03:50:13;;;;;;;7.57;1.65;;;3.30;99.90;;;;;;5025756;28;20327;-71
2023/03/11 03:52:58;;;;;;;4.50;1.50;;;3.40;99.90;;;;;;5024481;28;20239;-71
2023/03/11 03:55:44;;;;;;;5.65;1.33;;;3.30;99.90;;;;;;5018555;28;20272;-70
2023/03/11 03:58:30;;;;;;;9.15;1.63;;;3.30;99.90;;;;;;5023314;28;20246;-71
2023/03/11 04:01:16;;;;;;;4.15;1.95;;;3.40;99.90;;;;;;5027581;28;20250;-71
2023/03/11 04:04:01;;;;;;;6.28;2.10;;;3.20;99.90;;;;;;5023819;28;20265;-70
2023/03/11 04:06:48;;;;;;;10.95;2.10;;;3.20;99.90;;;;;;5019270;28;20226;-70
2023/03/11 04:09:34;;;;;;;6.40;1.77;;;3.20;99.90;;;;;;5031389;28;20210;-71
2023/03/11 04:12:19;;;;;;;5.88;1.80;;;3.20;99.90;;;;;;5021221;28;20227;-71
2023/03/11 04:15:06;;;;;;;5.90;1.73;;;3.20;99.90;;;;;;5026421;28;20203;-70
2023/03/11 04:17:52;;;;;;;13.40;1.80;;;3.30;99.90;;;;;;5022855;28;20226;-70
2023/03/11 04:20:39;;;;;;;7.20;2.00;;;3.40;99.90;;;;;;5024023;28;20300;-71
2023/03/11 04:23:26;;;;;;;6.70;1.70;;;3.40;99.90;;;;;;5024769;28;20281;-71
2023/03/11 04:26:11;;;;;;;5.53;1.58;;;3.40;99.90;;;;;;5023065;28;20330;-70
2023/03/11 04:28:57;;;;;;;5.25;1.95;;;3.50;99.90;;;;;;5028604;28;20342;-71
2023/03/11 04:31:42;;;;;;;4.22;2.00;;;3.40;99.90;;;;;;5035050;28;20244;-71
2023/03/11 04:34:28;;;;;;;5.13;1.30;;;3.40;99.90;;;;;;5037680;28;20337;-70
2023/03/11 04:37:14;;;;;;;9.43;1.88;;;3.40;99.90;;;;;;5026605;28;20839;-70
2023/03/11 04:40:01;;;;;;;9.43;2.08;;;3.30;99.90;;;;;;5039167;28;20208;-70
2023/03/11 04:42:48;;;;;;;10.80;2.13;;;3.20;99.90;;;;;;5036011;28;20304;-70
2023/03/11 04:45:35;;;;;;;10.60;2.15;;;3.10;99.90;;;;;;5024655;28;20334;-70
2023/03/11 04:48:21;;;;;;;7.00;2.17;;;3.10;99.90;;;;;;5033771;28;20837;-70
2023/03/11 04:51:07;;;;;;;7.35;1.60;;;3.30;99.90;;;;;;5033164;28;20210;-70
2023/03/11 04:53:53;;;;;;;4.70;1.90;;;3.40;99.90;;;;;;5028791;28;20760;-70
2023/03/11 04:56:40;;;;;;;4.18;1.85;;;3.30;99.90;;;;;;5014886;28;20271;-70
2023/03/11 04:59:25;;;;;;;6.40;1.92;;;3.30;99.90;;;;;;5023331;28;20276;-71
2023/03/11 05:02:11;;;;;;;10.30;3.63;;;3.30;99.90;;;;;;5028541;28;20206;-71
2023/03/11 05:04:57;;;;;;;7.47;1.63;;;3.20;99.90;;;;;;5023549;28;20207;-71
2023/03/11 05:07:43;;;;;;;6.72;1.88;;;3.10;99.90;;;;;;5031200;28;20221;-71
2023/03/11 05:10:29;;;;;;;6.88;1.60;;;3.20;99.90;;;;;;5020390;28;20251;-71
2023/03/11 05:13:16;;;;;;;8.68;3.85;;;3.30;99.90;;;;;;5024105;28;20223;-70
2023/03/11 05:16:01;;;;;;;7.47;3.22;;;3.20;99.90;;;;;;5025059;28;20734;-71
2023/03/11 05:18:47;;;;;;;6.03;2.00;;;3.10;99.90;;;;;;5016868;28;20212;-71
2023/03/11 05:21:32;;;;;;;5.20;1.98;;;3.00;99.90;;;;;;5017335;28;20195;-70
2023/03/11 05:24:18;;;;;;;8.55;2.10;;;2.90;99.90;;;;;;5021224;28;20241;-70
2023/03/11 05:27:04;;;;;;;4.03;2.10;;;2.90;99.90;;;;;;5020481;28;20226;-71
2023/03/11 05:29:51;;;;;;;7.18;2.20;;;2.90;99.90;;;;;;5026633;28;20700;-70
2023/03/11 05:32:37;;;;;;;8.82;2.28;;;3.00;99.90;;;;;;5023730;28;20243;-71
2023/03/11 05:35:23;;;;;;;6.40;1.90;;;3.00;99.90;;;;;;5020105;28;20230;-71
2023/03/11 05:38:08;;;;;;;6.03;1.80;;;3.00;99.90;;;;;;5024933;28;20230;-71
2023/03/11 05:40:54;;;;;;;4.32;1.85;;;3.00;99.90;;;;;;5020849;28;20207;-70
2023/03/11 05:43:40;;;;;;;6.30;1.50;;;3.00;99.90;;;;;;5025094;28;20202;-70
2023/03/11 05:46:27;;;;;;;3.85;1.90;;;2.90;99.90;;;;;;5015208;28;20358;-71
2023/03/11 05:49:13;;;;;;;4.57;2.15;;;2.90;99.90;;;;;;5021390;28;20720;-70
2023/03/11 05:51:58;;;;;;;12.48;2.35;;;2.90;99.90;;;;;;5027467;28;20230;-70
2023/03/11 05:54:44;;;;;;;8.02;2.88;;;2.80;99.90;;;;;;5013848;28;20686;-71
2023/03/11 05:57:30;;;;;;;11.80;1.88;;;2.80;99.90;;;;;;5016806;28;20251;-70
2023/03/11 06:00:19;;;;;;;7.15;2.15;;;2.70;99.90;;;;;;5024215;28;20331;-70
2023/03/11 06:03:06;;;;;;;6.63;2.00;;;2.70;99.90;;;;;;5023633;28;20357;-70
2023/03/11 06:05:52;;;;;;;5.85;1.67;;;2.60;99.90;;;;;;5022777;28;20206;-70
2023/03/11 06:08:38;;;;;;;2.88;1.40;;;2.60;99.90;;;;;;5023263;28;20232;-70
2023/03/11 06:11:25;;;;;;;7.10;1.98;;;2.50;99.90;;;;;;5020982;28;20223;-71
2023/03/11 06:14:12;;;;;;;4.80;1.80;;;2.60;99.90;;;;;;5019311;28;20255;-71
2023/03/11 06:16:59;;;;;;;6.68;2.97;;;2.50;99.90;;;;;;5027604;28;20227;-70
2023/03/11 06:19:45;;;;;;;5.30;1.52;;;2.50;99.90;;;;;;5019564;28;20206;-71
2023/03/11 06:22:31;;;;;;;7.50;1.85;;;2.50;99.90;;;;;;5021021;28;20683;-70
2023/03/11 06:25:17;;;;;;;13.40;2.13;;;2.50;99.90;;;;;;5019389;28;20326;-70
2023/03/11 06:28:03;;;;;;;5.35;1.70;;;2.50;99.90;;;;;;5025554;28;20231;-71
2023/03/11 06:30:49;;;;;;;5.50;1.80;;;2.40;99.90;;;;;;5032089;28;20219;-70
2023/03/11 06:33:34;;;;;;;11.98;2.40;;;2.40;99.90;;;;;;5026044;28;20231;-70
2023/03/11 06:36:22;;;;;;;8.63;2.40;;;2.30;99.90;;;;;;5027819;28;20330;-71
2023/03/11 06:39:08;;;;;;;6.65;2.22;;;2.30;99.90;;;;;;5035616;28;20288;-71
2023/03/11 06:41:54;;;;;;;6.00;2.20;;;2.30;99.90;;;;;;5043100;28;20209;-70
2023/03/11 06:44:40;;;;;;;5.75;2.40;;;2.20;99.90;;;;;;5022276;28;20727;-71
2023/03/11 06:47:25;;;;;;;5.13;1.90;;;2.40;99.90;;;;;;5030068;28;20230;-70
2023/03/11 06:50:11;;;;;;;8.57;4.20;;;2.50;99.90;;;;;;5036753;28;20328;-70
2023/03/11 06:52:58;;;;;;;17.42;3.28;;;2.60;99.90;;;;;;5026988;28;20309;-71
2023/03/11 06:55:44;;;;;;;8.20;2.08;;;2.60;99.90;;;;;;5025997;28;20208;-71
2023/03/11 06:58:30;;;;;;;5.25;2.33;;;2.70;99.90;;;;;;5035748;28;20233;-71
2023/03/11 07:01:19;;;;;;;13.30;2.40;;;2.70;99.90;;;;;;5026939;28;20206;-71
2023/03/11 07:04:04;;;;;;;4.60;2.20;;;2.80;99.90;;;;;;5022041;28;20334;-71
2023/03/11 07:06:50;;;;;;;12.88;2.47;;;2.90;99.90;;;;;;5025839;28;20238;-71
2023/03/11 07:09:37;;;;;;;13.98;2.75;;;2.90;99.90;;;;;;5028511;28;20218;-71
2023/03/11 07:12:24;;;;;;;3.83;2.22;;;3.00;99.90;;;;;;5015986;28;20342;-70
2023/03/11 07:15:10;;;;;;;7.90;2.30;;;3.00;99.90;;;;;;5023666;28;20208;-71
2023/03/11 07:17:56;;;;;;;6.25;2.28;;;3.00;99.90;;;;;;5021502;28;22662;-71
2023/03/11 07:20:42;;;;;;;9.77;2.50;;;3.10;99.90;;;;;;5024286;28;20699;-70
2023/03/11 07:23:27;;;;;;;7.63;2.03;;;2.90;99.90;;;;;;5020937;28;20203;-71
2023/03/11 07:26:16;;;;;;;7.72;2.83;;;2.80;99.90;;;;;;5019163;28;20214;-70
2023/03/11 07:29:02;;;;;;;5.95;2.03;;;2.80;99.90;;;;;;5024104;28;20206;-71
2023/03/11 07:31:48;;;;;;;5.60;2.05;;;2.90;99.90;;;;;;5026593;28;20203;-71
2023/03/11 07:34:34;;;;;;;7.20;1.90;;;2.90;99.90;;;;;;5027092;28;20293;-70
2023/03/11 07:37:20;;;;;;;8.35;2.53;;;3.00;99.90;;;;;;5031948;28;20238;-72
2023/03/11 07:40:06;;;;;;;6.72;2.13;;;3.10;99.90;;;;;;5056045;23;20223;-72
2023/03/11 07:42:53;;;;;;;9.23;2.53;;;3.20;99.90;;;;;;5024912;28;20219;-71
2023/03/11 07:45:39;;;;;;;6.18;2.78;;;3.20;99.90;;;;;;5042350;28;20209;-72
2023/03/11 07:48:24;;;;;;;11.65;3.17;;;3.10;99.90;;;;;;5034140;28;20215;-72
2023/03/11 07:51:11;;;;;;;5.40;2.33;;;3.00;99.90;;;;;;5025799;28;20331;-71
2023/03/11 07:53:59;;;;;;;8.90;2.85;;;3.00;99.90;;;;;;5022311;28;20242;-72
2023/03/11 07:56:45;;;;;;;9.77;2.22;;;3.00;99.90;;;;;;5026767;28;20206;-72
2023/03/11 07:59:32;;;;;;;14.73;2.50;;;3.00;99.90;;;;;;5026083;28;20238;-72
2023/03/11 08:02:18;;;;;;;5.90;2.47;;;3.00;99.90;;;;;;5022098;28;20207;-72
2023/03/11 08:05:03;;;;;;;6.82;2.40;;;3.00;99.90;;;;;;5026014;28;20279;-72
2023/03/11 08:07:49;;;;;;;10.35;2.80;;;2.90;99.90;;;;;;5026548;28;20572;-72
2023/03/11 08:10:37;;;;;;;13.02;2.92;;;2.90;99.90;;;;;;5019770;28;20238;-72
2023/03/11 08:13:22;;;;;;;11.50;3.25;;;3.10;99.90;;;;;;5023956;28;20230;-72
2023/03/11 08:16:11;;;;;;;7.80;2.38;;;3.00;99.90;;;;;;5027088;28;20214;-71
2023/03/11 08:18:57;;;;;;;6.00;2.47;;;3.00;99.90;;;;;;5027878;28;20234;-72
2023/03/11 08:21:42;;;;;;;14.32;3.05;;;2.90;99.90;;;;;;5019207;28;20758;-72
2023/03/11 08:24:28;;;;;;;9.35;3.22;;;2.80;99.90;;;;;;5020783;28;20198;-71
2023/03/11 08:27:14;;;;;;;13.35;3.03;;;2.80;99.90;;;;;;5035041;28;20202;-71
2023/03/11 08:30:00;;;;;;;11.63;2.65;;;2.90;99.90;;;;;;5032440;28;20234;-71
2023/03/11 08:32:48;;;;;;;7.93;2.88;;;3.10;99.90;;;;;;5029154;28;20816;-72
2023/03/11 08:35:33;;;;;;;15.75;2.70;;;3.40;99.90;;;;;;5046087;28;20210;-71
2023/03/11 08:38:19;;;;;;;7.47;2.65;;;3.60;99.90;;;;;;5035051;28;20667;-72
2023/03/11 08:41:05;;;;;;;16.00;4.15;;;3.80;99.90;;;;;;5024563;28;20212;-71
2023/03/11 08:43:51;;;;;;;9.52;2.63;;;3.90;99.90;;;;;;5035914;28;20684;-72
2023/03/11 08:46:38;;;;;;;10.07;2.65;;;3.90;99.90;;;;;;5038886;28;20233;-72
2023/03/11 08:49:25;;;;;;;9.40;2.70;;;3.80;99.90;;;;;;5026357;28;20322;-72
2023/03/11 08:52:10;;;;;;;16.50;2.88;;;3.70;99.90;;;;;;5030777;28;20562;-72
2023/03/11 08:54:57;;;;;;;10.05;2.67;;;3.60;99.90;;;;;;5034259;28;20203;-72
2023/03/11 08:57:43;;;;;;;13.45;2.35;;;3.50;99.90;;;;;;5026997;28;20289;-71
2023/03/11 09:00:28;;;;;;;7.65;2.53;;;3.60;99.90;;;;;;5022909;28;20358;-72
2023/03/11 09:03:14;;;;;;;5.93;2.35;;;3.60;99.90;;;;;;5028138;28;20206;-72
2023/03/11 09:06:02;;;;;;;9.30;3.25;;;3.70;99.90;;;;;;5030484;28;20586;-72
2023/03/11 09:08:49;;;;;;;8.05;2.50;;;3.80;99.90;;;;;;5036990;28;20583;-72
2023/03/11 09:11:36;;;;;;;11.85;2.63;;;4.00;99.90;;;;;;5027659;28;20682;-72
2023/03/11 09:14:22;;;;;;;6.13;2.13;;;4.10;99.90;;;;;;5024709;28;20223;-71
2023/03/11 09:17:08;;;;;;;9.85;2.50;;;4.20;99.60;;;;;;5023451;28;20782;-71
2023/03/11 09:19:54;;;;;;;9.25;2.47;;;4.30;99.50;;;;;;5020069;28;20293;-72
2023/03/11 09:22:41;;;;;;;10.02;4.35;;;4.60;99.90;;;;;;5027249;28;20694;-72
2023/03/11 09:25:26;;;;;;;10.30;2.80;;;5.00;99.10;;;;;;5020611;28;20272;-72
2023/03/11 09:28:12;;;;;;;10.15;2.00;;;5.20;93.10;;;;;;5020697;28;20277;-71
2023/03/11 09:30:57;;;;;;;5.35;1.95;;;5.30;85.90;;;;;;5025311;28;20727;-70
2023/03/11 09:33:44;;;;;;;2.67;1.30;;;5.20;82.70;;;;;;5026115;28;20210;-71
2023/03/11 09:36:30;;;;;;;12.88;3.00;;;5.10;81.60;;;;;;5013907;28;20282;-72
2023/03/11 09:39:17;;;;;;;15.70;2.55;;;5.10;81.50;;;;;;5016997;28;20783;-72
2023/03/11 09:42:05;;;;;;;12.48;2.13;;;5.10;80.00;;;;;;5026911;28;20199;-71
2023/03/11 09:44:59;;;;;;;7.68;2.17;;;4.90;81.60;;;;;;5026018;28;20207;-71
2023/03/11 09:47:56;;;;;;;9.15;2.45;;;4.70;76.60;;;;;;5024471;28;20219;-70
2023/03/11 09:50:47;;;;;;;9.55;2.13;;;4.40;78.50;;;;;;5029850;28;20385;-72
2023/03/11 09:53:39;;;;;;;2.90;1.50;;;4.10;78.90;;;;;;5031780;28;20770;-72
2023/03/11 09:56:26;;;;;;;9.55;1.73;;;4.30;80.50;;;;;;5020930;28;20199;-72
2023/03/11 09:59:18;;;;;;;6.35;1.70;;;4.30;66.20;;;;;;5023171;28;20267;-72
2023/03/11 10:02:05;;;;;;;6.93;1.85;;;4.50;72.50;;;;;;5018940;28;20203;-72
2023/03/11 10:04:57;;;;;;;6.57;1.75;;;4.80;74.80;;;;;;5022068;28;20204;-72
2023/03/11 10:07:49;;;;;;;6.22;2.33;;;5.20;72.20;;;;;;5027541;28;20211;-72
2023/03/11 10:10:41;;;;;;;8.57;1.85;;;5.70;72.80;;;;;;5022312;28;20222;-72
2023/03/11 10:13:32;;;;;;;9.43;1.95;;;5.80;66.80;;;;;;5021929;28;20324;-71
2023/03/11 10:16:26;;;;;;;4.57;1.50;;;5.90;68.80;;;;;;5021450;28;20592;-71
2023/03/11 10:19:20;;;;;;;6.47;2.17;;;6.00;65.70;;;;;;5009732;28;20235;-71
2023/03/11 10:22:14;;;;;;;6.28;2.10;;;5.80;57.20;;;;;;5023681;28;20202;-72
2023/03/11 10:25:09;;;;;;;5.40;1.47;;;5.70;58.00;;;;;;5019565;28;20227;-73
2023/03/11 10:28:02;;;;;;;4.97;1.90;;;5.70;55.80;;;;;;5021930;28;20536;-72
2023/03/11 10:30:54;;;;;;;4.40;1.70;;;5.70;57.30;;;;;;5029422;28;20297;-74
2023/03/11 10:33:45;;;;;;;7.28;1.85;;;5.70;56.90;;;;;;5020186;28;20224;-72
2023/03/11 10:36:39;;;;;;;8.27;1.83;;;5.50;55.40;;;;;;5016107;28;20245;-72
2023/03/11 10:39:27;;;;;;;7.57;1.60;;;5.90;60.00;;;;;;5027518;28;20239;-72
2023/03/11 10:42:17;;;;;;;6.83;1.57;;;6.40;59.80;;;;;;5037143;28;20342;-74
2023/03/11 10:45:03;;;;;;;7.37;1.80;;;6.90;59.60;;;;;;5036955;28;21030;-74
2023/03/11 10:47:50;;;;;;;8.13;1.80;;;7.30;52.60;;;;;;5034997;28;20542;-74
2023/03/11 10:50:36;;;;;;;3.17;1.20;;;7.60;43.50;;;;;;5035555;28;20447;-74
2023/03/11 10:53:22;;;;;;;8.70;1.95;;;7.10;36.40;;;;;;5032869;28;20538;-74
2023/03/11 10:56:25;;;;;;;3.77;1.23;;;7.00;40.00;;;;;;5039255;28;20618;-72
2023/03/11 10:59:24;;;;;;;10.03;1.80;;;6.80;39.40;;;;;;5030113;28;20476;-72
2023/03/11 11:02:24;;;;;;;5.07;1.70;;;6.70;40.50;;;;;;5037638;28;20439;-72
2023/03/11 11:05:28;;;;;;;7.45;1.50;;;6.50;39.00;;;;;;5034695;28;20835;-71
2023/03/11 11:08:16;;;;;;;5.20;1.50;;;6.30;36.90;;;;;;5030323;28;20563;-71
2023/03/11 11:11:04;;;;;;;9.70;2.30;;;6.10;39.10;;;;;;5040966;28;20316;-72
2023/03/11 11:13:57;;;;;;;10.02;1.80;;;5.50;39.80;;;;;;5037961;28;20571;-72
2023/03/11 11:16:43;;;;;;;4.10;1.45;;;5.40;43.80;;;;;;5030264;28;20211;-72
2023/03/11 11:19:29;;;;;;;7.38;1.65;;;5.40;45.20;;;;;;5032668;28;20362;-72
2023/03/11 11:22:19;;;;;;;4.38;1.40;;;5.50;43.90;;;;;;5033276;28;20207;-72
2023/03/11 11:25:29;;;;;;;5.22;1.60;;;5.80;41.60;;;;;;5022910;28;20761;-72
2023/03/11 11:28:17;;;;;;;5.10;2.00;;;6.40;41.90;;;;;;5028327;28;20211;-71
2023/03/11 11:31:05;;;;;;;12.40;1.77;;;6.30;36.10;;;;;;5029734;28;21734;-72
2023/03/11 11:33:52;;;;;;;5.00;1.90;;;6.20;36.20;;;;;;5027847;28;20511;-72
2023/03/11 11:36:38;;;;;;;8.80;2.88;;;5.80;35.90;;;;;;5029662;28;20569;-71
2023/03/11 11:39:27;;;;;;;7.10;1.80;;;5.70;37.90;;;;;;5031664;28;20226;-71
2023/03/11 11:42:14;;;;;;;4.72;1.85;;;5.70;37.90;;;;;;5026405;28;20207;-72
2023/03/11 11:45:07;;;;;;;9.05;2.50;;;5.70;39.40;;;;;;5021988;28;20213;-72
2023/03/11 11:47:55;;;;;;;7.15;1.77;;;5.70;40.40;;;;;;5023840;28;20572;-72
2023/03/11 11:50:44;;;;;;;10.05;2.17;;;5.50;41.90;;;;;;5034452;28;20231;-72
2023/03/11 11:53:38;;;;;;;7.68;1.67;;;5.60;41.90;;;;;;5022548;28;20227;-72
2023/03/11 11:56:26;;;;;;;4.80;1.95;;;5.60;39.40;;;;;;5019980;28;20203;-71
2023/03/11 11:59:17;;;;;;;4.10;1.90;;;5.40;40.80;;;;;;5030688;28;20236;-72
2023/03/11 12:02:13;;;;;;;3.40;1.45;;;5.40;38.00;;;;;;5023345;28;20267;-71
2023/03/11 12:05:07;;;;;;;5.67;1.63;;;5.60;40.80;;;;;;5019604;28;20247;-72
2023/03/11 12:08:04;;;;;;;8.53;1.60;;;6.20;40.60;;;;;;5020845;28;20571;-72
2023/03/11 12:10:54;;;;;;;6.43;1.40;;;6.80;36.10;;;;;;5032941;28;20449;-72
2023/03/11 12:14:03;;;;;;;7.10;1.73;;;7.20;31.40;;;;;;5022254;28;20442;-72
2023/03/11 12:16:55;;;;;;;4.20;1.33;;;7.40;26.20;;;;;;5019011;28;20501;-72
2023/03/11 12:19:49;;;;;;;4.80;1.80;;;7.70;26.60;;;;;;5031415;28;20567;-72
2023/03/11 12:23:26;;;;;;;3.40;1.50;;;8.00;25.90;;;;;;5036126;28;20485;-72
2023/03/11 12:26:16;;;;;;;5.17;1.50;;;8.20;27.40;;;;;;5029974;28;20446;-72
2023/03/11 12:29:08;;;;;;;4.70;1.60;;;8.50;28.20;;;;;;5020646;28;20859;-71
2023/03/11 12:31:55;;;;;;;3.07;1.20;;;8.60;26.10;;;;;;5036609;28;20974;-72
2023/03/11 12:34:41;;;;;;;3.73;2.00;;;8.50;26.20;;;;;;5024394;28;20550;-72
2023/03/11 12:37:27;;;;;;;6.30;1.60;;;8.50;27.50;;;;;;5024345;28;20442;-72
2023/03/11 12:40:46;;;;;;;2.63;1.50;;;8.60;29.00;;;;;;5023235;28;20493;-72
2023/03/11 12:43:58;;;;;;;9.50;1.80;;;8.90;28.10;;;;;;5024893;28;20479;-72
2023/03/11 12:47:19;;;;;;;7.73;1.47;;;8.80;27.80;;;;;;5025341;28;20452;-72
2023/03/11 12:50:38;;;;;;;6.23;1.60;;;9.10;27.00;;;;;;5019675;28;20999;-72
2023/03/11 12:53:42;;;;;;;3.83;1.80;;;9.50;26.80;;;;;;5022612;28;20991;-72
2023/03/11 12:56:36;;;;;;;6.60;1.50;;;9.90;27.30;;;;;;5026242;28;20450;-72
2023/03/11 12:59:47;;;;;;;7.10;1.90;;;9.80;23.10;;;;;;5025554;28;20596;-71
2023/03/11 13:03:00;;;;;;;5.17;1.70;;;9.90;24.70;;;;;;5024743;28;20455;-73
2023/03/11 13:06:02;;;;;;;1.87;1.10;;;10.20;23.30;;;;;;5028135;28;20421;-72
2023/03/11 13:08:50;;;;;;;6.03;1.30;;;10.20;21.50;;;;;;5032779;28;20552;-72
2023/03/11 13:11:43;;;;;;;3.00;1.50;;;10.00;22.00;;;;;;5028090;28;20463;-72
2023/03/11 13:14:31;;;;;;;4.47;1.60;;;9.80;22.90;;;;;;5028293;28;20565;-71
2023/03/11 13:17:25;;;;;;;3.67;1.50;;;9.50;23.40;;;;;;5032477;28;20443;-73
2023/03/11 13:20:48;;;;;;;5.87;2.03;;;9.40;24.20;;;;;;5024218;28;21157;-73
2023/03/11 13:23:35;;;;;;;6.33;2.10;;;9.40;23.60;;;;;;5029202;28;21100;-71
2023/03/11 13:26:31;;;;;;;6.10;2.37;;;9.50;23.50;;;;;;5026074;28;20446;-72
2023/03/11 13:29:52;;;;;;;8.10;1.33;;;9.50;24.70;;;;;;5018179;28;20458;-72
2023/03/11 13:33:04;;;;;;;4.97;1.67;;;9.60;25.50;;;;;;5023925;28;20839;-72
2023/03/11 13:36:09;;;;;;;6.70;2.20;;;9.00;25.20;;;;;;5022366;28;20491;-71
2023/03/11 13:39:19;;;;;;;3.47;1.40;;;8.50;27.90;;;;;;5017832;28;20525;-72
2023/03/11 13:42:17;;;;;;;4.23;1.87;;;8.10;28.10;;;;;;5016671;23;21080;-86
2023/03/11 13:45:04;;;;;;;7.13;2.17;;;7.70;27.70;;;;;;5006793;28;21095;-86
2023/03/11 13:47:51;;;;;;;5.03;1.83;;;7.30;28.60;;;;;;5010882;28;20463;-84
2023/03/11 13:50:40;;;;;;;6.80;1.67;;;7.30;29.60;;;;;;5010333;28;20530;-84
2023/03/11 13:53:32;;;;;;;7.53;2.30;;;7.20;28.70;;;;;;5007245;28;20508;-84
2023/03/11 13:56:22;;;;;;;5.00;1.63;;;6.70;29.40;;;;;;5004754;28;20467;-85
2023/03/11 13:59:17;;;;;;;9.30;1.92;;;6.70;31.70;;;;;;5009205;28;20206;-86
2023/03/11 14:02:16;;;;;;;5.20;1.48;;;6.70;33.20;;;;;;5009945;28;20655;-85
2023/03/11 14:05:06;;;;;;;8.40;1.92;;;6.90;33.00;;;;;;5010055;28;20204;-86
2023/03/11 14:07:51;;;;;;;7.30;1.80;;;7.00;33.70;;;;;;5009909;28;20277;-86
2023/03/11 14:10:39;;;;;;;4.57;1.93;;;7.10;33.60;;;;;;5009338;28;20462;-85
2023/03/11 14:13:26;;;;;;;5.07;2.03;;;7.20;33.30;;;;;;5017667;28;20473;-85
2023/03/11 14:16:16;;;;;;;2.87;1.50;;;7.30;32.30;;;;;;5011930;28;20455;-86
2023/03/11 14:19:26;;;;;;;4.60;1.90;;;7.30;31.00;;;;;;5015455;28;20445;-85
2023/03/11 14:22:18;;;;;;;5.73;1.63;;;7.30;31.10;;;;;;5014685;28;20547;-86
2023/03/11 14:25:17;;;;;;;4.30;1.80;;;7.30;31.70;;;;;;5015490;28;20455;-86
2023/03/11 14:28:05;;;;;;;11.30;2.00;;;7.30;29.30;;;;;;5016172;28;20833;-86
2023/03/11 14:34:44;;;;;;;4.30;2.53;;;7.10;32.70;;;;;;5000905;28;20489;-86
2023/03/11 14:37:33;;;;;;;11.23;2.17;;;7.10;30.50;;;;;;5017251;28;20818;-86
2023/03/11 14:40:28;;;;;;;3.83;1.38;;;7.00;29.10;;;;;;5007930;28;20459;-86
2023/03/11 14:43:23;;;;;;;3.25;2.22;;;7.00;29.70;;;;;;5017251;28;20204;-86
2023/03/11 14:46:15;;;;;;;5.15;1.58;;;7.00;29.40;;;;;;5016215;28;20205;-86
2023/03/11 14:49:04;;;;;;;9.20;1.67;;;7.00;28.80;;;;;;5012166;28;20620;-84
2023/03/11 14:51:55;;;;;;;6.90;1.83;;;6.90;27.30;;;;;;5014261;28;20823;-86
2023/03/11 14:54:42;;;;;;;4.70;1.30;;;6.80;27.90;;;;;;5018673;28;20481;-86